Key West, FL

5:29 PM EDT on July 28, 2016 (GMT -0400)
Key West International | | Change Station

Elev 0 ft 24.56 °N, 81.75 °W | Updated 36 minutes ago

Partly Cloudy
Partly Cloudy
89 °F
Feels Like 103 °F
N
12
Wind Variable Wind from East

Today
High -- | Low -- °F
--% Chance of Precip.
Yesterday
High -- | Low -- °F
Precip. -- in
Pressure 30.01 in
Visibility 10.0 miles
Clouds Few 2500 ft
Heat Index 103 °F
Dew Point 78 °F
Humidity 70%
Rainfall 0.29 in
Snow Depth Not available.
6:53 AM 8:13 PM
Waning Crescent, 28% visible
METAR KEYW 282053Z 10010KT 10SM FEW025 32/26 A3001 RMK AO2 SLP161 T03170256 56011
Pressure 30.01 in
Visibility 10.0 miles
Clouds Few 2500 ft
Heat Index 103 °F
Dew Point 78 °F
Humidity 70%
Rainfall 0.29 in
Snow Depth Not available.
6:53 AM 8:13 PM
Waning Crescent, 28% visible
METAR KEYW 282053Z 10010KT 10SM FEW025 32/26 A3001 RMK AO2 SLP161 T03170256 56011

10-Day Weather Forecast

Almanac

Astronomy

Jul. 28, 2016 Rise Set
Actual Time
Civil Twilight
Nautical Twilight
Astronomical Twilight
Moon
Length of Visible Light
Length of Day
Tomorrow will be .
, % of the Moon is Illuminated

Today's Extremes

State Highs State Lows

Community

WunderPhotos

Upload Photos

1,928,224 photos uploaded!

WunderBlog® & News

Nearby

Air Quality

  Air Quality AQ Index Pollutant
Not available.

Snow Depth

Station Depth Elevation

Earthquake Activity

City Distance Mag. Time & Date
Minimum magnitude displayed is 2.5.

Coastal Water Temperatures

Place Temperature

Stations

Nearby Weather Stations

Station Location Temp. Windchill Dew Point Humidity Wind Precip. Elev Updated Type
                   

Watches & Warnings

There are currently no watches in effect.